Persian Gulf International Airport

Airport
ICAO code: 
OIBP
IATA Code: 
PGU
Summary
ICAO Region: 
MID
Territory: 
Location: 
Khyaroo, Bushehr
Serving: 
Assaluyeh
Elevation: 
27 ft
Coordinates: 
Aerial View: 
27° 23' 13.227" N, 52° 44' 2.11" E
Metar
Observation
OIBP 260700Z 25004KT CAVOK 43/22 Q0995 A2940
Station
Persian Gulf International Airport
Date/Time
2022-06-26 07:00:00
Wind direction
250°
Wind speed
04 kts
Lowest cloud amount
clouds and visibility OK
Temperature
43°C
Dew point
22°C
Humidity
30%
QNH
995 hPa
Weather condition
n/a

Airport serving Assalouyeh (Asaluyeh) in southern Iran.

Climatology

Hot Desert climate (Köppen climate classification BWh).

Runways

Designator Length Width Surface Rops
13/31 3997 45 ASP No/No
Airport map: 
Aerial View: 

SKYbrary Partners:

Safety knowledge contributed by: